Time;durP1;ratioP1;P1;durP2;ratioP2;P2;SDS_P1;SDS_P2;PMS_P1;PMS_P2;Temp;Humidity;BMP_temperature;BMP_pressure;BME280_temperature;BME280_humidity;BME280_pressure;Samples;Min_cycle;Max_cycle;Signal;HPM_P1;HPM_P2
2023/04/05 00:00:07;;;;;;;7.67;3.70;;;;;;;;;;5024179;28;20200;-94
2023/04/05 00:02:35;;;;;;;8.50;4.33;;;;;;;;;;5023560;28;20222;-95
2023/04/05 00:05:03;;;;;;;4.20;3.80;;;;;;;;;;5017267;28;20242;-94
2023/04/05 00:07:33;;;;;;;5.63;3.60;;;;;;;;;;5019808;28;20231;-94
2023/04/05 00:10:00;;;;;;;5.03;4.30;;;;;;;;;;5023706;28;20663;-93
2023/04/05 00:12:27;;;;;;;4.47;4.03;;;;;;;;;;5033486;28;20230;-94
2023/04/05 00:14:54;;;;;;;5.80;4.00;;;;;;;;;;5029428;28;20692;-95
2023/04/05 00:17:22;;;;;;;6.63;4.70;;;;;;;;;;5015606;28;20235;-94
2023/04/05 00:19:55;;;;;;;6.00;4.37;;;;;;;;;;5027787;28;20204;-94
2023/04/05 00:22:24;;;;;;;4.80;4.20;;;;;;;;;;5034229;28;20691;-94
2023/04/05 00:24:51;;;;;;;5.63;4.70;;;;;;;;;;5015779;28;20228;-94
2023/04/05 00:27:19;;;;;;;7.03;4.73;;;;;;;;;;5022532;28;20689;-94
2023/04/05 00:29:46;;;;;;;7.40;4.20;;;;;;;;;;5023837;28;20243;-94
2023/04/05 00:32:13;;;;;;;6.27;4.33;;;;;;;;;;5033929;28;20241;-94
2023/04/05 00:34:41;;;;;;;4.97;4.57;;;;;;;;;;5033388;28;20222;-94
2023/04/05 00:37:08;;;;;;;5.03;4.53;;;;;;;;;;5033563;28;20230;-95
2023/04/05 00:39:35;;;;;;;5.20;4.67;;;;;;;;;;5034510;28;20206;-94
2023/04/05 00:42:03;;;;;;;5.93;4.37;;;;;;;;;;5033493;28;20244;-94
2023/04/05 00:44:33;;;;;;;5.73;4.83;;;;;;;;;;5033964;28;20309;-94
2023/04/05 00:47:00;;;;;;;7.83;4.70;;;;;;;;;;5033815;28;20673;-94
2023/04/05 00:49:29;;;;;;;8.57;4.67;;;;;;;;;;5034272;28;20597;-94
2023/04/05 00:51:58;;;;;;;5.40;4.53;;;;;;;;;;5033753;28;20240;-94
2023/04/05 00:54:27;;;;;;;5.40;4.50;;;;;;;;;;5034070;28;20226;-94
2023/04/05 00:56:55;;;;;;;5.00;4.50;;;;;;;;;;5032578;28;20317;-92
2023/04/05 00:59:22;;;;;;;5.87;4.13;;;;;;;;;;5030569;28;20218;-92
2023/04/05 01:01:54;;;;;;;4.57;4.13;;;;;;;;;;5032101;28;20223;-92
2023/04/05 01:04:23;;;;;;;4.90;4.47;;;;;;;;;;5034009;28;20323;-92
2023/04/05 01:07:00;;;;;;;7.43;5.00;;;;;;;;;;5028595;28;20238;-92
2023/04/05 01:09:39;;;;;;;4.50;4.10;;;;;;;;;;5019416;28;20652;-92
2023/04/05 01:12:08;;;;;;;4.73;4.33;;;;;;;;;;5033324;28;20238;-92
2023/04/05 01:14:44;;;;;;;4.70;4.20;;;;;;;;;;5031882;28;20214;-92
2023/04/05 01:17:11;;;;;;;5.43;3.97;;;;;;;;;;5024792;28;20288;-92
2023/04/05 01:19:40;;;;;;;5.23;4.03;;;;;;;;;;5016543;28;20612;-92
2023/04/05 01:22:14;;;;;;;6.30;4.17;;;;;;;;;;5018800;28;20242;-92
2023/04/05 01:25:05;;;;;;;5.70;4.40;;;;;;;;;;5027263;28;20212;-92
2023/04/05 01:27:39;;;;;;;4.83;4.43;;;;;;;;;;5020645;28;20251;-92
2023/04/05 01:30:11;;;;;;;7.67;4.13;;;;;;;;;;5014855;28;20661;-92
2023/04/05 01:32:44;;;;;;;5.33;4.23;;;;;;;;;;5023787;28;20234;-92
2023/04/05 01:35:15;;;;;;;6.77;4.27;;;;;;;;;;5032004;28;20219;-92
2023/04/05 01:37:45;;;;;;;5.30;4.70;;;;;;;;;;5031494;28;20223;-92
2023/04/05 01:40:13;;;;;;;7.43;4.90;;;;;;;;;;5021701;28;20324;-92
2023/04/05 01:42:40;;;;;;;6.47;4.80;;;;;;;;;;5016459;28;20333;-92
2023/04/05 01:45:07;;;;;;;6.57;4.50;;;;;;;;;;5015327;28;20233;-91
2023/04/05 01:47:36;;;;;;;5.20;4.70;;;;;;;;;;5017227;28;20239;-90
2023/04/05 01:50:03;;;;;;;6.60;4.47;;;;;;;;;;5013768;28;20235;-92
2023/04/05 01:52:30;;;;;;;5.50;4.57;;;;;;;;;;5012792;28;20238;-92
2023/04/05 01:54:57;;;;;;;4.67;4.27;;;;;;;;;;5029068;28;20227;-91
2023/04/05 01:57:24;;;;;;;6.07;4.87;;;;;;;;;;5036279;28;20241;-91
2023/04/05 01:59:51;;;;;;;4.57;4.20;;;;;;;;;;5020907;28;20274;-91
2023/04/05 02:02:18;;;;;;;5.90;4.40;;;;;;;;;;5022388;28;20242;-92
2023/04/05 02:04:46;;;;;;;5.20;4.70;;;;;;;;;;5019822;28;20219;-91
2023/04/05 02:07:14;;;;;;;7.53;4.67;;;;;;;;;;5037217;28;20615;-91
2023/04/05 02:09:41;;;;;;;6.23;4.00;;;;;;;;;;5036085;28;20310;-90
2023/04/05 02:12:08;;;;;;;5.60;4.83;;;;;;;;;;5029022;28;20235;-91
2023/04/05 02:14:35;;;;;;;5.17;4.67;;;;;;;;;;5022961;28;20665;-91
2023/04/05 02:17:02;;;;;;;5.73;4.60;;;;;;;;;;5014833;28;20265;-91
2023/04/05 02:19:36;;;;;;;5.63;4.47;;;;;;;;;;5017716;28;20298;-91
2023/04/05 02:22:04;;;;;;;4.60;4.20;;;;;;;;;;5031734;28;20234;-90
2023/04/05 02:24:31;;;;;;;7.43;4.80;;;;;;;;;;5023858;28;20218;-90
2023/04/05 02:26:58;;;;;;;4.97;4.57;;;;;;;;;;5037635;28;20610;-90
2023/04/05 02:29:26;;;;;;;6.37;5.07;;;;;;;;;;5037601;28;20310;-91
2023/04/05 02:31:53;;;;;;;4.87;4.43;;;;;;;;;;5036076;28;20241;-91
2023/04/05 02:34:21;;;;;;;8.13;5.00;;;;;;;;;;5021988;28;20225;-91
2023/04/05 02:36:49;;;;;;;6.60;4.50;;;;;;;;;;5031259;28;20243;-91
2023/04/05 02:39:18;;;;;;;7.30;4.37;;;;;;;;;;5028743;28;20199;-91
2023/04/05 02:41:45;;;;;;;5.90;4.47;;;;;;;;;;5013269;28;20235;-91
2023/04/05 02:44:13;;;;;;;4.63;4.20;;;;;;;;;;5014800;28;20245;-91
2023/04/05 02:46:40;;;;;;;6.10;4.53;;;;;;;;;;5019450;28;20240;-92
2023/04/05 02:49:07;;;;;;;5.33;4.80;;;;;;;;;;5013513;28;20218;-91
2023/04/05 02:51:34;;;;;;;5.80;4.70;;;;;;;;;;5016764;28;20227;-91
2023/04/05 02:54:02;;;;;;;6.37;4.83;;;;;;;;;;5032034;28;20255;-91
2023/04/05 02:56:31;;;;;;;5.03;4.33;;;;;;;;;;5020582;28;20234;-91
2023/04/05 02:58:58;;;;;;;6.80;4.43;;;;;;;;;;5015551;28;20223;-91
2023/04/05 03:01:25;;;;;;;4.70;4.30;;;;;;;;;;5030706;28;20230;-91
2023/04/05 03:03:52;;;;;;;5.50;4.57;;;;;;;;;;5032101;28;20240;-91
2023/04/05 03:06:19;;;;;;;5.17;4.70;;;;;;;;;;5019603;28;20293;-91
2023/04/05 03:08:48;;;;;;;6.47;4.70;;;;;;;;;;5017296;28;20702;-91
2023/04/05 03:11:17;;;;;;;5.93;5.13;;;;;;;;;;5029934;28;20288;-92
2023/04/05 03:13:45;;;;;;;5.27;4.73;;;;;;;;;;5033797;28;20249;-92
2023/04/05 03:16:12;;;;;;;5.03;4.17;;;;;;;;;;5018505;28;20249;-91
2023/04/05 03:18:39;;;;;;;7.63;4.57;;;;;;;;;;5036533;28;20199;-92
2023/04/05 03:21:10;;;;;;;7.27;4.60;;;;;;;;;;5035635;28;20237;-92
2023/04/05 03:23:54;;;;;;;5.27;4.67;;;;;;;;;;5036844;28;20252;-92
2023/04/05 03:26:21;;;;;;;5.43;4.93;;;;;;;;;;5023871;28;20629;-92
2023/04/05 03:28:50;;;;;;;4.60;4.20;;;;;;;;;;5036514;28;20681;-91
2023/04/05 03:31:17;;;;;;;4.83;4.43;;;;;;;;;;5032239;28;20244;-90
2023/04/05 03:33:44;;;;;;;8.50;4.50;;;;;;;;;;5029245;28;20279;-90
2023/04/05 03:36:15;;;;;;;6.47;4.63;;;;;;;;;;5028511;28;20720;-90
2023/04/05 03:38:44;;;;;;;5.43;4.93;;;;;;;;;;5037591;28;20210;-90
2023/04/05 03:41:11;;;;;;;6.03;4.77;;;;;;;;;;5033088;28;20230;-91
2023/04/05 03:43:38;;;;;;;7.77;5.07;;;;;;;;;;5030262;28;20228;-90
2023/04/05 03:46:06;;;;;;;7.50;5.07;;;;;;;;;;5028375;28;20264;-91
2023/04/05 03:48:33;;;;;;;5.20;4.70;;;;;;;;;;5016935;28;20219;-90
2023/04/05 03:51:01;;;;;;;6.73;5.33;;;;;;;;;;5016240;28;20230;-91
2023/04/05 03:53:28;;;;;;;6.43;4.97;;;;;;;;;;5016918;28;20210;-91
2023/04/05 03:55:55;;;;;;;5.37;4.50;;;;;;;;;;5015991;28;20301;-91
2023/04/05 03:58:22;;;;;;;6.77;5.53;;;;;;;;;;5030028;28;20210;-91
2023/04/05 04:00:49;;;;;;;5.43;5.00;;;;;;;;;;5025621;28;20206;-89
2023/04/05 04:03:17;;;;;;;6.37;5.20;;;;;;;;;;5036124;28;20202;-90
2023/04/05 04:05:44;;;;;;;5.50;4.47;;;;;;;;;;5035564;28;20678;-91
2023/04/05 04:08:12;;;;;;;5.93;5.20;;;;;;;;;;5035495;28;20231;-90
2023/04/05 04:10:40;;;;;;;5.87;5.17;;;;;;;;;;5036619;28;20293;-95
2023/04/05 04:13:07;;;;;;;5.87;5.37;;;;;;;;;;5044525;28;20233;-96
2023/04/05 04:15:34;;;;;;;5.50;4.70;;;;;;;;;;5036584;28;20254;-94
2023/04/05 04:18:01;;;;;;;5.83;5.17;;;;;;;;;;5035486;28;20245;-86
2023/04/05 04:20:29;;;;;;;5.57;5.00;;;;;;;;;;5036802;28;20210;-93
2023/04/05 04:22:57;;;;;;;9.60;5.83;;;;;;;;;;5038087;28;20234;-94
2023/04/05 04:25:25;;;;;;;6.53;5.50;;;;;;;;;;5035771;28;20226;-96
2023/04/05 04:27:59;;;;;;;5.23;4.77;;;;;;;;;;5034714;28;20236;-95
2023/04/05 04:30:26;;;;;;;5.43;4.80;;;;;;;;;;5038059;28;20226;-95
2023/04/05 04:32:53;;;;;;;5.10;4.47;;;;;;;;;;5035765;28;20239;-95
2023/04/05 04:35:23;;;;;;;5.87;5.37;;;;;;;;;;5036390;28;20269;-95
2023/04/05 04:37:56;;;;;;;7.97;5.23;;;;;;;;;;5035170;28;20236;-95
2023/04/05 04:40:24;;;;;;;6.43;5.60;;;;;;;;;;5035860;28;20645;-91
2023/04/05 04:42:51;;;;;;;6.33;5.70;;;;;;;;;;5035917;28;20263;-91
2023/04/05 04:45:19;;;;;;;6.70;5.33;;;;;;;;;;5035664;28;20232;-89
2023/04/05 04:47:48;;;;;;;7.40;5.33;;;;;;;;;;5034778;28;20231;-88
2023/04/05 04:50:18;;;;;;;9.43;5.33;;;;;;;;;;5035944;28;20227;-91
2023/04/05 04:52:59;;;;;;;8.03;4.90;;;;;;;;;;5034405;28;20243;-91
2023/04/05 04:55:26;;;;;;;5.57;5.07;;;;;;;;;;5034978;28;20648;-91
2023/04/05 04:57:54;;;;;;;7.20;5.40;;;;;;;;;;5034597;28;20237;-90
2023/04/05 05:00:22;;;;;;;6.00;4.93;;;;;;;;;;5034763;28;20206;-90
2023/04/05 05:02:51;;;;;;;5.97;5.37;;;;;;;;;;5034055;28;20242;-90
2023/04/05 05:05:21;;;;;;;6.70;6.03;;;;;;;;;;5034285;28;20744;-90
2023/04/05 05:07:48;;;;;;;8.37;6.50;;;;;;;;;;5036124;28;20285;-91
2023/04/05 05:10:17;;;;;;;8.70;6.47;;;;;;;;;;5035420;28;20227;-90
2023/04/05 05:12:45;;;;;;;9.97;6.57;;;;;;;;;;5034674;28;20237;-90
2023/04/05 05:15:12;;;;;;;7.23;6.10;;;;;;;;;;5035419;28;20218;-90
2023/04/05 05:17:39;;;;;;;7.40;5.90;;;;;;;;;;5034767;28;20271;-90
2023/04/05 05:20:09;;;;;;;7.40;5.53;;;;;;;;;;5034245;28;20208;-91
2023/04/05 05:22:36;;;;;;;6.57;5.87;;;;;;;;;;5032845;28;20239;-90
2023/04/05 05:25:04;;;;;;;6.60;5.57;;;;;;;;;;5034036;28;20240;-91
2023/04/05 05:27:33;;;;;;;8.57;5.17;;;;;;;;;;5033728;28;20242;-90
2023/04/05 05:30:00;;;;;;;6.80;5.93;;;;;;;;;;5034310;28;20317;-91
2023/04/05 05:32:27;;;;;;;6.13;5.57;;;;;;;;;;5033453;28;20281;-91
2023/04/05 05:34:54;;;;;;;7.40;5.70;;;;;;;;;;5034765;28;20301;-90
2023/04/05 05:37:22;;;;;;;7.83;5.80;;;;;;;;;;5033633;28;20247;-91
2023/04/05 05:39:49;;;;;;;9.20;5.67;;;;;;;;;;5033934;28;20730;-90
2023/04/05 05:42:17;;;;;;;6.93;6.20;;;;;;;;;;5033319;28;20246;-90
2023/04/05 05:44:46;;;;;;;6.67;6.07;;;;;;;;;;5034826;28;20274;-91
2023/04/05 05:47:13;;;;;;;8.63;6.30;;;;;;;;;;5033151;28;20234;-91
2023/04/05 05:49:40;;;;;;;7.20;5.60;;;;;;;;;;5033871;28;20198;-89
2023/04/05 05:52:07;;;;;;;7.07;6.43;;;;;;;;;;5032870;28;20248;-90
2023/04/05 05:54:34;;;;;;;7.23;6.00;;;;;;;;;;5034500;28;20228;-90
2023/04/05 05:57:02;;;;;;;7.40;5.90;;;;;;;;;;5037230;28;20248;-89
2023/04/05 05:59:29;;;;;;;6.57;5.97;;;;;;;;;;5034731;28;20219;-90
2023/04/05 06:02:07;;;;;;;8.33;6.37;;;;;;;;;;5034241;28;20253;-90
2023/04/05 06:04:35;;;;;;;8.27;6.67;;;;;;;;;;5034440;28;20218;-90
2023/04/05 06:07:02;;;;;;;7.97;6.63;;;;;;;;;;5034615;28;20242;-90
2023/04/05 06:09:29;;;;;;;15.47;7.10;;;;;;;;;;5033655;28;20202;-90
2023/04/05 06:11:57;;;;;;;7.93;6.60;;;;;;;;;;5032984;28;20242;-90
2023/04/05 06:14:24;;;;;;;6.47;5.87;;;;;;;;;;5029738;28;20325;-90
2023/04/05 06:16:52;;;;;;;7.30;6.40;;;;;;;;;;5032608;28;20240;-90
2023/04/05 06:19:20;;;;;;;8.33;7.20;;;;;;;;;;5032892;28;20210;-90
2023/04/05 06:21:47;;;;;;;10.20;7.33;;;;;;;;;;5032617;28;20314;-90
2023/04/05 06:24:14;;;;;;;9.37;6.67;;;;;;;;;;5033366;28;20746;-90
2023/04/05 06:26:41;;;;;;;12.47;7.37;;;;;;;;;;5033196;28;20231;-89
2023/04/05 06:29:09;;;;;;;10.73;7.43;;;;;;;;;;5033530;28;20239;-89
2023/04/05 06:31:36;;;;;;;9.00;6.83;;;;;;;;;;5032815;28;20237;-90
2023/04/05 06:34:03;;;;;;;8.87;6.40;;;;;;;;;;5035771;28;20235;-90
2023/04/05 06:36:32;;;;;;;8.23;7.03;;;;;;;;;;5035926;28;20244;-90
2023/04/05 06:38:59;;;;;;;10.27;7.50;;;;;;;;;;5037061;28;20206;-89
2023/04/05 06:41:27;;;;;;;11.93;7.00;;;;;;;;;;5036755;28;20238;-89
2023/04/05 06:43:54;;;;;;;8.37;6.13;;;;;;;;;;5037828;28;20275;-89
2023/04/05 06:46:21;;;;;;;11.23;6.87;;;;;;;;;;5036807;28;20230;-89
2023/04/05 06:48:49;;;;;;;10.17;6.47;;;;;;;;;;5037525;28;20204;-89
2023/04/05 06:51:16;;;;;;;6.70;5.83;;;;;;;;;;5036751;28;20594;-89
2023/04/05 06:53:44;;;;;;;8.67;6.57;;;;;;;;;;5035443;28;20223;-89
2023/04/05 06:56:12;;;;;;;6.90;6.20;;;;;;;;;;5053301;22;20237;-92
2023/04/05 06:58:39;;;;;;;7.97;6.30;;;;;;;;;;5030895;28;20261;-92
2023/04/05 07:01:06;;;;;;;8.37;6.63;;;;;;;;;;5017759;28;20231;-91
2023/04/05 07:03:33;;;;;;;7.97;6.50;;;;;;;;;;5016949;28;20214;-92
2023/04/05 07:06:01;;;;;;;7.83;7.03;;;;;;;;;;5014564;28;20254;-92
2023/04/05 07:08:29;;;;;;;7.23;6.53;;;;;;;;;;5003322;28;20405;-92
2023/04/05 07:10:57;;;;;;;7.43;6.20;;;;;;;;;;4996796;28;20223;-91
2023/04/05 07:13:25;;;;;;;8.60;6.57;;;;;;;;;;4996995;28;20200;-92
2023/04/05 07:15:52;;;;;;;7.00;6.30;;;;;;;;;;4996689;28;20325;-92
2023/04/05 07:18:19;;;;;;;7.67;6.87;;;;;;;;;;4997433;28;20597;-93
2023/04/05 07:20:48;;;;;;;7.07;6.30;;;;;;;;;;4997138;28;20204;-92
2023/04/05 07:23:16;;;;;;;10.47;5.97;;;;;;;;;;5017010;28;20212;-92
2023/04/05 07:25:44;;;;;;;8.63;6.33;;;;;;;;;;5016962;28;20631;-93
2023/04/05 07:28:13;;;;;;;9.30;5.90;;;;;;;;;;5016641;28;20302;-93
2023/04/05 07:30:40;;;;;;;6.03;5.40;;;;;;;;;;5016472;28;20220;-93
2023/04/05 07:33:07;;;;;;;6.03;5.43;;;;;;;;;;5027782;28;20296;-93
2023/04/05 07:35:35;;;;;;;6.10;5.50;;;;;;;;;;5036539;28;20218;-93
2023/04/05 07:38:02;;;;;;;6.73;5.97;;;;;;;;;;5048407;28;20272;-95
2023/04/05 07:40:29;;;;;;;5.70;5.20;;;;;;;;;;5057109;28;20210;-94
2023/04/05 07:42:56;;;;;;;4.83;4.47;;;;;;;;;;5037996;28;20242;-94
2023/04/05 07:45:26;;;;;;;4.60;4.10;;;;;;;;;;5035755;28;20211;-94
2023/04/05 07:47:53;;;;;;;5.10;4.40;;;;;;;;;;5042935;28;20231;-96
2023/04/05 07:50:20;;;;;;;5.50;3.90;;;;;;;;;;5036967;28;20209;-95
2023/04/05 07:53:01;;;;;;;7.00;4.40;;;;;;;;;;5019317;28;20239;-94
2023/04/05 07:55:28;;;;;;;5.40;4.03;;;;;;;;;;5015770;28;20187;-94
2023/04/05 07:57:57;;;;;;;4.43;4.03;;;;;;;;;;5015940;28;20634;-93
2023/04/05 08:00:26;;;;;;;4.90;3.90;;;;;;;;;;5016188;28;20206;-92
2023/04/05 08:02:53;;;;;;;4.00;3.70;;;;;;;;;;5018659;28;20262;-93
2023/04/05 08:05:20;;;;;;;6.10;4.43;;;;;;;;;;5016240;28;20210;-93
2023/04/05 08:07:47;;;;;;;5.17;4.27;;;;;;;;;;5016028;28;20239;-96
2023/04/05 08:10:15;;;;;;;5.30;3.67;;;;;;;;;;5020126;28;20208;-92
2023/04/05 08:12:42;;;;;;;5.37;3.70;;;;;;;;;;5014447;28;20262;-91
2023/04/05 08:15:09;;;;;;;5.33;3.70;;;;;;;;;;5015361;28;20212;-93
2023/04/05 08:17:38;;;;;;;4.13;3.73;;;;;;;;;;5009596;28;20240;-92
2023/04/05 08:20:07;;;;;;;6.77;3.63;;;;;;;;;;4996459;28;20286;-93
2023/04/05 08:22:35;;;;;;;4.50;3.43;;;;;;;;;;5011006;28;20231;-92
2023/04/05 08:25:02;;;;;;;4.17;3.07;;;;;;;;;;5015357;28;20186;-94
2023/04/05 08:27:29;;;;;;;4.07;3.53;;;;;;;;;;5017646;28;20746;-92
2023/04/05 08:29:56;;;;;;;4.37;3.40;;;;;;;;;;5034658;28;20214;-92
2023/04/05 08:32:23;;;;;;;4.00;3.60;;;;;;;;;;5021616;28;20243;-93
2023/04/05 08:34:52;;;;;;;4.80;4.30;;;;;;;;;;5025006;28;20203;-92
2023/04/05 08:37:20;;;;;;;4.43;3.40;;;;;;;;;;5022179;28;20250;-92
2023/04/05 08:39:47;;;;;;;4.77;3.60;;;;;;;;;;5016844;28;20192;-92
2023/04/05 08:42:16;;;;;;;4.00;3.37;;;;;;;;;;5015199;28;20239;-92
2023/04/05 08:44:45;;;;;;;3.70;3.40;;;;;;;;;;5015540;28;20204;-92
2023/04/05 08:47:17;;;;;;;5.57;3.70;;;;;;;;;;5014397;28;20300;-92
2023/04/05 08:49:44;;;;;;;3.33;3.03;;;;;;;;;;5015034;28;20203;-92
2023/04/05 08:52:12;;;;;;;3.80;2.60;;;;;;;;;;5014223;28;20289;-92
2023/04/05 08:54:39;;;;;;;3.23;2.93;;;;;;;;;;5014586;28;20305;-92
2023/04/05 08:57:07;;;;;;;4.57;3.43;;;;;;;;;;5013819;28;20239;-92
2023/04/05 08:59:37;;;;;;;3.20;2.90;;;;;;;;;;4997473;28;20211;-93
2023/04/05 09:02:06;;;;;;;4.20;2.90;;;;;;;;;;5005357;28;20231;-93
2023/04/05 09:04:37;;;;;;;3.33;3.00;;;;;;;;;;5015063;28;20686;-92
2023/04/05 09:07:06;;;;;;;4.43;3.27;;;;;;;;;;5014276;28;20239;-93
2023/04/05 09:09:36;;;;;;;4.30;2.90;;;;;;;;;;5031243;28;20217;-93
2023/04/05 09:12:04;;;;;;;4.93;3.20;;;;;;;;;;5033845;28;20717;-92
2023/04/05 09:14:31;;;;;;;3.47;3.00;;;;;;;;;;5034262;28;20210;-92
2023/04/05 09:16:58;;;;;;;3.27;2.90;;;;;;;;;;5033455;28;20249;-92
2023/04/05 09:19:25;;;;;;;3.70;2.90;;;;;;;;;;5034162;28;20210;-92
2023/04/05 09:21:59;;;;;;;3.70;2.80;;;;;;;;;;5033231;28;20226;-92
2023/04/05 09:24:39;;;;;;;2.90;2.60;;;;;;;;;;5034277;28;20254;-92
2023/04/05 09:27:07;;;;;;;3.30;2.90;;;;;;;;;;5033672;28;20329;-92
2023/04/05 09:29:34;;;;;;;2.90;2.70;;;;;;;;;;5034266;28;20214;-92
2023/04/05 09:32:02;;;;;;;3.83;2.90;;;;;;;;;;5032905;28;20341;-92
2023/04/05 09:34:31;;;;;;;3.90;3.10;;;;;;;;;;5033723;28;20241;-92
2023/04/05 09:36:58;;;;;;;3.13;2.83;;;;;;;;;;5033854;28;20803;-93
2023/04/05 09:39:29;;;;;;;3.53;2.97;;;;;;;;;;5034800;28;20209;-93
2023/04/05 09:42:07;;;;;;;4.80;2.70;;;;;;;;;;5028435;28;20231;-92
2023/04/05 09:44:50;;;;;;;7.17;3.77;;;;;;;;;;5015196;28;20210;-92
2023/04/05 09:47:18;;;;;;;18.03;11.60;;;;;;;;;;5013949;28;20250;-92
2023/04/05 09:49:45;;;;;;;6.93;3.80;;;;;;;;;;4999556;28;20204;-92
2023/04/05 09:52:19;;;;;;;3.70;3.10;;;;;;;;;;5005301;28;20242;-92
2023/04/05 09:54:46;;;;;;;8.33;5.83;;;;;;;;;;5013227;28;20204;-92
2023/04/05 09:57:16;;;;;;;3.23;2.50;;;;;;;;;;5012990;28;20242;-92
2023/04/05 09:59:43;;;;;;;4.10;3.00;;;;;;;;;;5026117;28;20825;-92
2023/04/05 10:02:11;;;;;;;3.10;2.80;;;;;;;;;;5032561;28;20233;-93
2023/04/05 10:04:39;;;;;;;3.70;2.60;;;;;;;;;;5032968;28;20183;-92
2023/04/05 10:07:07;;;;;;;3.90;2.77;;;;;;;;;;5021980;28;20289;-92
2023/04/05 10:09:34;;;;;;;4.03;2.80;;;;;;;;;;5005968;28;20207;-91
2023/04/05 10:12:01;;;;;;;4.43;2.80;;;;;;;;;;5008235;28;20234;-91
2023/04/05 10:14:30;;;;;;;2.97;2.77;;;;;;;;;;5017846;28;20218;-92
2023/04/05 10:17:04;;;;;;;3.13;2.70;;;;;;;;;;5016710;28;20254;-92
2023/04/05 10:19:37;;;;;;;3.30;2.40;;;;;;;;;;5037948;28;20201;-92
2023/04/05 10:22:09;;;;;;;3.43;2.80;;;;;;;;;;5056533;28;20256;-93
2023/04/05 10:24:40;;;;;;;2.60;2.40;;;;;;;;;;5057605;28;20631;-91
2023/04/05 10:27:12;;;;;;;3.83;2.87;;;;;;;;;;5044659;28;20246;-92
2023/04/05 10:29:44;;;;;;;2.85;2.65;;;;;;;;;;5036751;28;20671;-92
2023/04/05 10:32:14;;;;;;;3.72;2.95;;;;;;;;;;5048061;28;20234;-93
2023/04/05 10:34:43;;;;;;;3.08;2.80;;;;;;;;;;5057522;28;20293;-93
2023/04/05 10:37:14;;;;;;;3.45;2.92;;;;;;;;;;5052328;28;20242;-93
2023/04/05 10:39:43;;;;;;;2.90;2.63;;;;;;;;;;5039497;28;20593;-93
2023/04/05 10:42:14;;;;;;;4.13;2.45;;;;;;;;;;5027919;28;20230;-92
2023/04/05 10:44:44;;;;;;;3.05;2.85;;;;;;;;;;5037354;28;20563;-92
2023/04/05 10:47:16;;;;;;;4.07;2.80;;;;;;;;;;5048421;28;20237;-94
2023/04/05 10:49:43;;;;;;;3.75;2.75;;;;;;;;;;5056982;28;20615;-94
2023/04/05 10:52:10;;;;;;;3.15;2.85;;;;;;;;;;5044878;28;20241;-93
2023/04/05 10:54:37;;;;;;;4.43;2.85;;;;;;;;;;5036719;28;20222;-95
2023/04/05 10:57:06;;;;;;;3.15;2.30;;;;;;;;;;5047204;28;20249;-94
2023/04/05 10:59:35;;;;;;;2.50;2.30;;;;;;;;;;5044037;28;20186;-93
2023/04/05 11:02:04;;;;;;;3.10;2.80;;;;;;;;;;5045629;28;20257;-93
2023/04/05 11:04:33;;;;;;;4.38;2.60;;;;;;;;;;5036696;28;20213;-93
2023/04/05 11:07:11;;;;;;;4.70;2.88;;;;;;;;;;5046382;28;20320;-93
2023/04/05 11:09:39;;;;;;;3.95;2.40;;;;;;;;;;5056273;28;20198;-94
2023/04/05 11:12:08;;;;;;;3.13;2.83;;;;;;;;;;5044887;28;20234;-93
2023/04/05 11:14:37;;;;;;;3.15;2.53;;;;;;;;;;5036596;28;20183;-92
2023/04/05 11:17:24;;;;;;;2.72;2.20;;;;;;;;;;5046687;28;20234;-93
2023/04/05 11:19:52;;;;;;;2.75;2.50;;;;;;;;;;5055641;28;20206;-92
2023/04/05 11:22:25;;;;;;;3.33;2.53;;;;;;;;;;5035963;28;20238;-92
2023/04/05 11:24:55;;;;;;;3.22;2.72;;;;;;;;;;4996059;28;20192;-92
2023/04/05 11:27:26;;;;;;;4.45;3.10;;;;;;;;;;4995510;28;20242;-92
2023/04/05 11:29:54;;;;;;;6.15;2.80;;;;;;;;;;5009047;28;20289;-92
2023/04/05 11:32:22;;;;;;;3.15;2.60;;;;;;;;;;5048509;28;20230;-92
2023/04/05 11:35:00;;;;;;;3.13;2.78;;;;;;;;;;5051530;28;20685;-92
2023/04/05 11:37:41;;;;;;;3.00;2.80;;;;;;;;;;5040009;28;20237;-92
2023/04/05 11:40:24;;;;;;;3.45;2.50;;;;;;;;;;5039339;28;20202;-93
2023/04/05 11:42:58;;;;;;;2.83;2.55;;;;;;;;;;5055776;28;20283;-94
2023/04/05 11:45:25;;;;;;;2.65;2.42;;;;;;;;;;5057792;28;20650;-93
2023/04/05 11:47:54;;;;;;;3.42;2.60;;;;;;;;;;5045290;28;20246;-93
2023/04/05 11:50:21;;;;;;;3.58;2.67;;;;;;;;;;5037643;28;20218;-93
2023/04/05 11:53:03;;;;;;;2.40;2.30;;;;;;;;;;5038934;28;20227;-93
2023/04/05 11:55:30;;;;;;;4.82;2.67;;;;;;;;;;5036956;28;20210;-94
2023/04/05 11:57:57;;;;;;;2.45;2.22;;;;;;;;;;5036238;28;20243;-92
2023/04/05 12:00:25;;;;;;;3.13;2.38;;;;;;;;;;5036516;28;20210;-93
2023/04/05 12:02:58;;;;;;;2.72;2.45;;;;;;;;;;5019314;28;20232;-95
2023/04/05 12:05:25;;;;;;;3.08;2.33;;;;;;;;;;5003681;28;20569;-92
2023/04/05 12:07:54;;;;;;;2.63;2.42;;;;;;;;;;4995112;28;20231;-93
2023/04/05 12:10:21;;;;;;;2.60;2.40;;;;;;;;;;5001652;28;20258;-91
2023/04/05 12:12:48;;;;;;;2.72;2.40;;;;;;;;;;5014207;28;20250;-91
2023/04/05 12:15:17;;;;;;;3.35;2.55;;;;;;;;;;5015225;28;20223;-91
2023/04/05 12:17:48;;;;;;;3.53;2.50;;;;;;;;;;5014645;28;20235;-93
2023/04/05 12:20:18;;;;;;;2.55;2.33;;;;;;;;;;5010164;28;20580;-91
2023/04/05 12:22:47;;;;;;;3.25;2.13;;;;;;;;;;5024711;28;20771;-91
2023/04/05 12:25:14;;;;;;;2.58;2.30;;;;;;;;;;5053790;28;20692;-89
2023/04/05 12:27:41;;;;;;;2.45;2.20;;;;;;;;;;5037589;28;20237;-90
2023/04/05 12:30:09;;;;;;;4.15;2.45;;;;;;;;;;5032987;28;20215;-91
2023/04/05 12:32:37;;;;;;;2.15;2.03;;;;;;;;;;5048265;28;20233;-92
2023/04/05 12:35:07;;;;;;;2.25;2.00;;;;;;;;;;5041328;28;20214;-91
2023/04/05 12:37:36;;;;;;;2.63;2.42;;;;;;;;;;5018684;28;20249;-92
2023/04/05 12:40:04;;;;;;;2.35;2.10;;;;;;;;;;5021139;28;20211;-91
2023/04/05 12:42:32;;;;;;;2.20;2.00;;;;;;;;;;5029557;28;20238;-91
2023/04/05 12:45:02;;;;;;;2.63;2.00;;;;;;;;;;5009990;28;20218;-93
2023/04/05 12:47:30;;;;;;;2.72;2.40;;;;;;;;;;5010495;28;20309;-91
2023/04/05 12:49:57;;;;;;;2.83;2.50;;;;;;;;;;5013817;28;20210;-91
2023/04/05 12:52:27;;;;;;;4.28;2.15;;;;;;;;;;5012749;28;20235;-91
2023/04/05 12:54:56;;;;;;;2.40;2.10;;;;;;;;;;5031070;28;20213;-91
2023/04/05 12:57:30;;;;;;;2.92;2.10;;;;;;;;;;5028448;22;20238;-89
2023/04/05 12:59:57;;;;;;;2.30;2.10;;;;;;;;;;4991495;28;20210;-90
2023/04/05 13:02:25;;;;;;;2.88;2.20;;;;;;;;;;4994778;28;20618;-90
2023/04/05 13:04:53;;;;;;;2.10;1.90;;;;;;;;;;5003182;28;20626;-91
2023/04/05 13:07:20;;;;;;;2.17;2.08;;;;;;;;;;5026869;28;20235;-90
2023/04/05 13:09:47;;;;;;;2.13;1.98;;;;;;;;;;5034394;28;20289;-90
2023/04/05 13:12:15;;;;;;;2.33;2.13;;;;;;;;;;5033593;28;20235;-89
2023/04/05 13:14:42;;;;;;;3.70;2.10;;;;;;;;;;5028540;28;20663;-91
2023/04/05 13:17:10;;;;;;;2.28;2.08;;;;;;;;;;5013789;28;20251;-90
2023/04/05 13:19:37;;;;;;;2.42;2.22;;;;;;;;;;5014411;28;20259;-90
2023/04/05 13:22:04;;;;;;;2.20;2.00;;;;;;;;;;5014164;28;20239;-91
2023/04/05 13:24:31;;;;;;;3.63;2.00;;;;;;;;;;5014357;28;20204;-89
2023/04/05 13:26:58;;;;;;;2.30;2.10;;;;;;;;;;5013566;28;20249;-89
2023/04/05 13:29:26;;;;;;;2.42;2.22;;;;;;;;;;5013924;28;20202;-90
2023/04/05 13:31:54;;;;;;;2.75;2.20;;;;;;;;;;5013271;28;20239;-90
2023/04/05 13:34:21;;;;;;;2.00;1.80;;;;;;;;;;5013846;28;20594;-90
2023/04/05 13:36:48;;;;;;;2.83;2.40;;;;;;;;;;5017506;28;20246;-90
2023/04/05 13:39:15;;;;;;;2.90;2.33;;;;;;;;;;5013731;28;20948;-91
2023/04/05 13:41:42;;;;;;;2.30;2.10;;;;;;;;;;5013780;28;20690;-89
2023/04/05 13:44:10;;;;;;;2.60;2.40;;;;;;;;;;5012997;28;20211;-89
2023/04/05 13:46:38;;;;;;;2.95;2.40;;;;;;;;;;5013094;28;20235;-89
2023/04/05 13:49:05;;;;;;;2.75;1.75;;;;;;;;;;5013722;28;20207;-90
2023/04/05 13:51:34;;;;;;;2.33;2.03;;;;;;;;;;5013351;28;20235;-90
2023/04/05 13:54:01;;;;;;;3.08;2.15;;;;;;;;;;5013274;28;20281;-89
2023/04/05 13:56:28;;;;;;;3.53;2.10;;;;;;;;;;5013111;28;20243;-90
2023/04/05 13:58:55;;;;;;;4.05;2.40;;;;;;;;;;5000942;28;20311;-90
2023/04/05 14:01:22;;;;;;;3.92;2.35;;;;;;;;;;4993351;28;20232;-90
2023/04/05 14:03:51;;;;;;;2.30;2.10;;;;;;;;;;4994173;28;20208;-90
2023/04/05 14:06:18;;;;;;;2.65;2.40;;;;;;;;;;5007421;28;20710;-90
2023/04/05 14:08:45;;;;;;;2.20;2.00;;;;;;;;;;5013732;28;20676;-90
2023/04/05 14:11:12;;;;;;;2.13;1.88;;;;;;;;;;5012451;28;20281;-89
2023/04/05 14:13:39;;;;;;;2.40;2.20;;;;;;;;;;5012724;28;20611;-90
2023/04/05 14:16:06;;;;;;;2.58;2.15;;;;;;;;;;5016445;28;20701;-90
2023/04/05 14:18:33;;;;;;;2.60;2.15;;;;;;;;;;5019394;28;20215;-89
2023/04/05 14:21:02;;;;;;;4.10;2.10;;;;;;;;;;5011986;28;20188;-90
2023/04/05 14:23:29;;;;;;;2.30;2.08;;;;;;;;;;5020948;28;20204;-90
2023/04/05 14:25:56;;;;;;;2.28;2.08;;;;;;;;;;5012009;28;20218;-90
2023/04/05 14:28:23;;;;;;;2.03;1.83;;;;;;;;;;5012697;28;20229;-90
2023/04/05 14:30:50;;;;;;;2.47;2.28;;;;;;;;;;5011613;28;20203;-90
2023/04/05 14:33:17;;;;;;;2.00;1.90;;;;;;;;;;5012144;28;20254;-90
2023/04/05 14:35:45;;;;;;;3.42;2.05;;;;;;;;;;5012188;28;20199;-90
2023/04/05 14:38:13;;;;;;;2.58;2.30;;;;;;;;;;5012016;28;20219;-90
2023/04/05 14:40:40;;;;;;;2.28;2.08;;;;;;;;;;5012251;28;20684;-89
2023/04/05 14:43:07;;;;;;;2.42;2.20;;;;;;;;;;5011750;28;20975;-90
2023/04/05 14:45:34;;;;;;;2.78;2.17;;;;;;;;;;5012278;28;20199;-91
2023/04/05 14:48:02;;;;;;;2.33;2.13;;;;;;;;;;5011647;28;20722;-89
2023/04/05 14:50:31;;;;;;;1.90;1.80;;;;;;;;;;5012945;28;20215;-90